KCSV

Crossville Memorial-Whitson Field Airport

Crossville, Tennessee, USA
METAR KCSV 191453Z AUTO 11005KT 10SM CLR 24/17 A3006 RMK AO2 SLP160 T02440167 50003
Observed Flight Rules
Jul-19 @ 14:53 UTC (51 minutes ago) Visual Flight Rules
Wind Visibility Clouds
110° at 5 knots 10 miles
  • Clear skies
Temperatures Readings
Current 24°C / 75°F
Dewpoint 17°C / 63°F
Humidity 65%
Altimeter 30.06" Hg
Pressure 1016 hPa
Elevation 570
METAR KCSV 191453Z AUTO 11005KT 10SM CLR 24/17 A3006 RMK AO2 SLP160 T02440167 50003
Observed Flight Rules
Jul-19 @ 14:53 UTC
(51 minutes ago)
VFR
Wind Visibility
110° at 5 knots 10 miles
Clouds
  • Clear skies
Temperature Dewpoint
24°C / 75°F 17°C / 63°F
Humidity Altimeter Pressure
65% 30.06" Hg 1016 hPa